createdAt,value
2023-04-12T00:00:28.678Z,95413.81
2023-04-12T00:02:35.624Z,95407.16
2023-04-12T00:04:39.410Z,95399.06
2023-04-12T00:06:42.331Z,95356.34
2023-04-12T00:08:46.992Z,95390.97
2023-04-12T00:10:49.763Z,95303.72
2023-04-12T00:12:53.887Z,95389.34
2023-04-12T00:14:56.648Z,95377.78
2023-04-12T00:16:59.429Z,95379.34
2023-04-12T00:19:03.652Z,95374.72
2023-04-12T00:21:07.151Z,95368.50
2023-04-12T00:23:12.825Z,95379.22
2023-04-12T00:25:15.555Z,95358.09
2023-04-12T00:27:18.396Z,95257.22
2023-04-12T00:29:22.563Z,95362.34
2023-04-12T00:31:25.507Z,95360.09
2023-04-12T00:33:28.313Z,95346.66
2023-04-12T00:35:31.239Z,95258.28
2023-04-12T00:37:36.201Z,95339.72
2023-04-12T00:39:39.130Z,95345.09
2023-04-12T00:41:42.270Z,95341.53
2023-04-12T00:43:45.165Z,95338.63
2023-04-12T00:45:49.366Z,95332.19
2023-04-12T00:47:52.265Z,95200.72
2023-04-12T00:49:55.094Z,95321.50
2023-04-12T00:52:03.196Z,95071.28
2023-04-12T00:54:07.798Z,95279.84
2023-04-12T00:56:12.026Z,95330.28
2023-04-12T00:58:16.151Z,95330.28
2023-04-12T01:00:20.838Z,95318.66
2023-04-12T01:02:25.254Z,95321.94
2023-04-12T01:04:29.771Z,95311.44
2023-04-12T01:06:50.542Z,95314.41
2023-04-12T01:08:59.283Z,95309.25
2023-04-12T01:11:07.032Z,95319.00
2023-04-12T01:13:22.183Z,95308.88
2023-04-12T01:15:26.408Z,95218.13
2023-04-12T01:17:37.897Z,95264.41
2023-04-12T01:19:57.835Z,95294.63
2023-04-12T01:22:13.570Z,95297.84
2023-04-12T01:24:28.941Z,95170.75
2023-04-12T01:26:38.100Z,95166.22
2023-04-12T01:28:44.559Z,95285.84
2023-04-12T01:30:48.903Z,95282.91
2023-04-12T01:32:52.488Z,95280.53
2023-04-12T01:34:56.864Z,95268.47
2023-04-12T01:37:02.908Z,95266.34
2023-04-12T01:39:06.605Z,95264.41
2023-04-12T01:41:09.829Z,95254.03
2023-04-12T01:43:15.938Z,95186.94
2023-04-12T01:45:20.233Z,95254.03
2023-04-12T01:47:22.997Z,95246.53
2023-04-12T01:49:36.961Z,95242.25
2023-04-12T01:51:50.220Z,95248.09
2023-04-12T01:54:00.974Z,95237.81
2023-04-12T01:56:09.409Z,95214.06
2023-04-12T01:58:12.991Z,95097.31
2023-04-12T02:00:17.872Z,95232.50
2023-04-12T02:02:22.287Z,95185.66
2023-04-12T02:04:27.683Z,95045.09
2023-04-12T02:06:32.687Z,94939.44
2023-04-12T02:08:35.905Z,95220.94
2023-04-12T02:10:40.374Z,95216.97
2023-04-12T02:12:43.171Z,95042.53
2023-04-12T02:14:45.924Z,95166.44
2023-04-12T02:16:50.651Z,95203.88
2023-04-12T02:18:56.385Z,95207.38
2023-04-12T02:20:59.194Z,95193.44
2023-04-12T02:23:01.973Z,95184.09
2023-04-12T02:25:06.393Z,95185.94
2023-04-12T02:27:09.242Z,95188.13
2023-04-12T02:29:13.760Z,95034.16
2023-04-12T02:31:17.072Z,95173.34
2023-04-12T02:33:25.388Z,95182.97
2023-04-12T02:35:32.142Z,95040.13
2023-04-12T02:37:43.953Z,95171.22
2023-04-12T02:39:46.714Z,95150.34
2023-04-12T02:41:50.185Z,95152.81
2023-04-12T02:43:53.158Z,95142.13
2023-04-12T02:45:56.380Z,95138.38
2023-04-12T02:47:59.502Z,95141.59
2023-04-12T02:50:06.446Z,95128.78
2023-04-12T02:52:18.356Z,95059.69
2023-04-12T02:54:35.071Z,95033.59
2023-04-12T02:56:39.031Z,95117.56
2023-04-12T02:58:58.530Z,95119.69
2023-04-12T03:01:19.631Z,95119.97
2023-04-12T03:03:41.449Z,95107.94
2023-04-12T03:06:03.447Z,95103.38
2023-04-12T03:08:08.173Z,95092.91
2023-04-12T03:10:21.877Z,95092.66
2023-04-12T03:12:36.166Z,95093.72
2023-04-12T03:14:50.742Z,95091.81
2023-04-12T03:16:55.005Z,95089.13
2023-04-12T03:18:58.042Z,94899.38
2023-04-12T03:21:04.082Z,95081.66
2023-04-12T03:23:08.612Z,94927.38
2023-04-12T03:25:14.421Z,95069.59
2023-04-12T03:27:27.374Z,94939.47
2023-04-12T03:29:30.382Z,95072.00
2023-04-12T03:31:33.315Z,95068.78
2023-04-12T03:33:41.005Z,95086.97
2023-04-12T03:35:53.236Z,95070.91
2023-04-12T03:37:56.040Z,95061.81
2023-04-12T03:40:00.261Z,95062.84
2023-04-12T03:42:03.712Z,95049.47
2023-04-12T03:44:07.649Z,95055.88
2023-04-12T03:46:11.792Z,95044.38
2023-04-12T03:48:14.779Z,95041.16
2023-04-12T03:50:19.791Z,95037.41
2023-04-12T03:52:29.641Z,95028.59
2023-04-12T03:54:32.712Z,95018.97
2023-04-12T03:56:41.291Z,95023.78
2023-04-12T03:58:51.695Z,95023.22
2023-04-12T04:00:56.711Z,95013.06
2023-04-12T04:03:03.522Z,95015.72
2023-04-12T04:05:12.905Z,95030.16
2023-04-12T04:07:16.221Z,95010.63
2023-04-12T04:09:21.608Z,95012.19
2023-04-12T04:11:25.524Z,95002.28
2023-04-12T04:13:34.436Z,94997.50
2023-04-12T04:15:41.878Z,95008.41
2023-04-12T04:17:47.472Z,94806.75
2023-04-12T04:19:51.506Z,94953.31
2023-04-12T04:21:56.821Z,94812.66
2023-04-12T04:24:01.084Z,94706.97
2023-04-12T04:26:10.029Z,94980.84
2023-04-12T04:28:16.931Z,94992.09
2023-04-12T04:30:23.182Z,94968.50
2023-04-12T04:32:26.214Z,94976.06
2023-04-12T04:34:32.860Z,94972.31
2023-04-12T04:36:45.188Z,94966.38
2023-04-12T04:38:52.863Z,94969.34
2023-04-12T04:41:17.492Z,94960.28
2023-04-12T04:43:26.705Z,94961.88
2023-04-12T04:45:37.430Z,94954.13
2023-04-12T04:47:40.494Z,94947.97
2023-04-12T04:49:44.149Z,94954.13
2023-04-12T04:51:58.056Z,94826.88
2023-04-12T04:54:03.098Z,94948.78
2023-04-12T04:56:06.636Z,94947.72
2023-04-12T04:58:11.896Z,94955.75
2023-04-12T05:00:16.380Z,94912.25
2023-04-12T05:02:23.760Z,94953.63
2023-04-12T05:04:26.600Z,94949.88
2023-04-12T05:06:29.938Z,94943.19
2023-04-12T05:08:35.061Z,94945.84
2023-04-12T05:10:38.113Z,94949.34
2023-04-12T05:12:40.850Z,94945.34
2023-04-12T05:14:48.154Z,94945.03
2023-04-12T05:16:54.334Z,94947.16
2023-04-12T05:18:58.576Z,94955.50
2023-04-12T05:21:03.615Z,94848.38
2023-04-12T05:23:06.433Z,94892.41
2023-04-12T05:25:10.506Z,94939.75
2023-04-12T05:27:20.711Z,94950.44
2023-04-12T05:29:24.159Z,94947.78
2023-04-12T05:31:27.993Z,94777.13
2023-04-12T05:33:34.550Z,94928.53
2023-04-12T05:35:39.446Z,94922.66
2023-04-12T05:37:42.161Z,94928.28
2023-04-12T05:39:44.947Z,94918.94
2023-04-12T05:41:49.030Z,94921.63
2023-04-12T05:43:51.782Z,94912.00
2023-04-12T05:45:54.805Z,94908.28
2023-04-12T05:47:59.444Z,94914.19
2023-04-12T05:50:03.217Z,94798.81
2023-04-12T05:52:08.787Z,94816.53
2023-04-12T05:54:11.672Z,94889.56
2023-04-12T05:56:14.446Z,94890.66
2023-04-12T05:58:19.459Z,94872.72
2023-04-12T06:00:24.297Z,94876.75
2023-04-12T06:02:27.424Z,94827.41
2023-04-12T06:04:46.603Z,94868.47
2023-04-12T06:06:52.740Z,94833.28
2023-04-12T06:09:00.612Z,94871.16
2023-04-12T06:11:04.828Z,94864.44
2023-04-12T06:13:08.242Z,94856.94
2023-04-12T06:15:12.269Z,94866.06
2023-04-12T06:17:15.105Z,94853.22
2023-04-12T06:19:18.096Z,94865.00
2023-04-12T06:21:20.911Z,94863.41
2023-04-12T06:23:23.872Z,94862.88
2023-04-12T06:25:29.209Z,94864.47
2023-04-12T06:27:33.649Z,94850.28
2023-04-12T06:29:36.407Z,94855.91
2023-04-12T06:31:39.278Z,94850.84
2023-04-12T06:33:42.888Z,94845.22
2023-04-12T06:35:47.238Z,94844.69
2023-04-12T06:37:50.086Z,94849.22
2023-04-12T06:39:53.560Z,94833.44
2023-04-12T06:41:59.514Z,94837.72
2023-04-12T06:44:02.293Z,94835.56
2023-04-12T06:46:05.441Z,94833.44
2023-04-12T06:48:08.267Z,94837.19
2023-04-12T06:50:11.768Z,94828.59
2023-04-12T06:52:14.742Z,94813.06
2023-04-12T06:54:17.531Z,94652.88
2023-04-12T06:56:20.239Z,94772.63
2023-04-12T06:58:24.406Z,94811.47
2023-04-12T07:00:27.434Z,94806.91
2023-04-12T07:02:30.365Z,94803.41
2023-04-12T07:04:33.223Z,94799.94
2023-04-12T07:06:36.166Z,94795.91
2023-04-12T07:08:39.363Z,94801.25
2023-04-12T07:10:42.187Z,94773.94
2023-04-12T07:12:44.916Z,94746.56
2023-04-12T07:14:49.040Z,94750.31
2023-04-12T07:16:51.825Z,94743.34
2023-04-12T07:18:54.583Z,94726.13
2023-04-12T07:20:57.733Z,94740.25
2023-04-12T07:23:00.503Z,94726.00
2023-04-12T07:25:05.111Z,94741.28
2023-04-12T07:27:07.862Z,94718.97
2023-04-12T07:29:10.681Z,94739.38
2023-04-12T07:31:14.793Z,94738.53
2023-04-12T07:33:19.832Z,94723.25
2023-04-12T07:35:23.381Z,94716.53
2023-04-12T07:37:26.141Z,94732.81
2023-04-12T07:39:29.651Z,94714.53
2023-04-12T07:41:32.492Z,94651.72
2023-04-12T07:43:35.445Z,94709.41
2023-04-12T07:45:38.232Z,94704.56
2023-04-12T07:47:42.585Z,94691.34
2023-04-12T07:49:45.516Z,94710.94
2023-04-12T07:51:48.418Z,94705.66
2023-04-12T07:53:51.753Z,94656.66
2023-04-12T07:55:55.205Z,94688.94
2023-04-12T07:57:57.940Z,94684.19
2023-04-12T08:00:00.666Z,94691.72
2023-04-12T08:02:03.760Z,94675.06
2023-04-12T08:04:08.170Z,94690.63
2023-04-12T08:06:11.902Z,94695.16
2023-04-12T08:08:14.674Z,94671.91
2023-04-12T08:10:17.726Z,94691.72
2023-04-12T08:12:21.178Z,94678.56
2023-04-12T08:14:23.894Z,94673.75
2023-04-12T08:16:27.166Z,94675.81
2023-04-12T08:18:30.038Z,94673.59
2023-04-12T08:20:34.110Z,94644.19
2023-04-12T08:22:36.979Z,94688.91
2023-04-12T08:24:39.731Z,94706.25
2023-04-12T08:26:42.436Z,94693.41
2023-04-12T08:28:45.448Z,94691.22
2023-04-12T08:30:48.209Z,94697.41
2023-04-12T08:32:50.952Z,94688.47
2023-04-12T08:34:53.696Z,94676.06
2023-04-12T08:37:00.254Z,94676.50
2023-04-12T08:39:03.612Z,94681.88
2023-04-12T08:41:06.736Z,94677.75
2023-04-12T08:43:12.175Z,94683.75
2023-04-12T08:45:15.340Z,94686.50
2023-04-12T08:47:18.458Z,94679.66
2023-04-12T08:49:24.899Z,94668.81
2023-04-12T08:51:28.183Z,94680.03
2023-04-12T08:53:32.293Z,94566.16
2023-04-12T08:55:35.002Z,94675.88
2023-04-12T08:57:40.334Z,94678.28
2023-04-12T08:59:44.664Z,94670.91
2023-04-12T09:01:47.766Z,94678.88
2023-04-12T09:03:50.670Z,94608.28
2023-04-12T09:05:53.581Z,94676.59
2023-04-12T09:07:56.352Z,94676.31
2023-04-12T09:10:00.495Z,94675.00
2023-04-12T09:12:08.207Z,94671.84
2023-04-12T09:14:23.045Z,94660.97
2023-04-12T09:16:36.442Z,94656.75
2023-04-12T09:18:49.427Z,94659.44
2023-04-12T09:20:52.526Z,94655.44
2023-04-12T09:22:55.739Z,94651.53
2023-04-12T09:24:59.844Z,94660.88
2023-04-12T09:27:04.705Z,94654.41
2023-04-12T09:29:20.917Z,94647.00
2023-04-12T09:31:23.711Z,94674.06
2023-04-12T09:33:35.059Z,94669.16
2023-04-12T09:35:37.942Z,94557.69
2023-04-12T09:37:40.815Z,94656.13
2023-04-12T09:39:44.095Z,94662.06
2023-04-12T09:41:48.175Z,94649.81
2023-04-12T09:43:50.896Z,94631.22
2023-04-12T09:46:11.085Z,94628.50
2023-04-12T09:48:20.244Z,94617.47
2023-04-12T09:50:24.115Z,94534.53
2023-04-12T09:52:36.955Z,94631.97
2023-04-12T09:54:42.416Z,94637.31
2023-04-12T09:56:46.140Z,94628.75
2023-04-12T09:58:54.428Z,94624.56
2023-04-12T10:00:59.586Z,94630.16
2023-04-12T10:03:02.979Z,94622.56
2023-04-12T10:05:07.451Z,94609.53
2023-04-12T10:07:11.475Z,94631.59
2023-04-12T10:09:15.452Z,94631.38
2023-04-12T10:11:19.284Z,94611.06
2023-04-12T10:13:25.901Z,94606.00
2023-04-12T10:15:30.439Z,94594.66
2023-04-12T10:17:38.033Z,94605.25
2023-04-12T10:19:40.891Z,94603.59
2023-04-12T10:21:43.655Z,94607.69
2023-04-12T10:23:47.259Z,94616.34
2023-04-12T10:25:50.852Z,94585.97
2023-04-12T10:27:53.952Z,94616.69
2023-04-12T10:30:20.133Z,94601.41
2023-04-12T10:32:25.695Z,94539.41
2023-04-12T10:34:34.220Z,94599.75
2023-04-12T10:36:55.942Z,94595.03
2023-04-12T10:39:10.487Z,94605.88
2023-04-12T10:41:18.603Z,94598.75
2023-04-12T10:43:28.746Z,94582.22
2023-04-12T10:45:38.746Z,94584.75
2023-04-12T10:48:01.570Z,94585.16
2023-04-12T10:50:25.025Z,94572.91
2023-04-12T10:52:29.158Z,94488.81
2023-04-12T10:54:35.485Z,94578.72
2023-04-12T10:56:42.989Z,94580.84
2023-04-12T10:58:59.841Z,94561.31
2023-04-12T11:01:18.267Z,94587.19
2023-04-12T11:03:22.650Z,94588.81
2023-04-12T11:05:25.571Z,94574.75
2023-04-12T11:07:40.547Z,94591.03
2023-04-12T11:10:03.332Z,94581.06
2023-04-12T11:12:16.076Z,94570.28
2023-04-12T11:14:24.928Z,94554.53
2023-04-12T11:16:27.911Z,94511.59
2023-04-12T11:18:34.420Z,94552.44
2023-04-12T11:20:40.767Z,94555.53
2023-04-12T11:22:43.881Z,94540.56
2023-04-12T11:24:48.924Z,94548.69
2023-04-12T11:26:52.394Z,94533.19
2023-04-12T11:28:55.870Z,94528.91
2023-04-12T11:30:59.606Z,94262.00
2023-04-12T11:33:02.423Z,94537.00
2023-04-12T11:35:07.412Z,94544.34
2023-04-12T11:37:11.587Z,94538.41
2023-04-12T11:39:14.520Z,94521.88
2023-04-12T11:41:18.465Z,94532.34
2023-04-12T11:43:22.087Z,94540.97
2023-04-12T11:45:25.051Z,94522.69
2023-04-12T11:47:28.224Z,94520.50
2023-04-12T11:49:31.096Z,94534.50
2023-04-12T11:51:35.814Z,94527.38
2023-04-12T11:53:38.574Z,94535.78
2023-04-12T11:55:41.491Z,94507.72
2023-04-12T11:57:44.277Z,94527.00
2023-04-12T11:59:48.723Z,94508.59
2023-04-12T12:01:52.783Z,94509.91
2023-04-12T12:03:56.245Z,94505.13
2023-04-12T12:05:59.647Z,94521.56
2023-04-12T12:08:07.300Z,94408.78
2023-04-12T12:10:11.122Z,94523.41
2023-04-12T12:12:14.963Z,94499.56
2023-04-12T12:14:20.219Z,94495.00
2023-04-12T12:16:26.640Z,94489.97
2023-04-12T12:18:29.504Z,94494.78
2023-04-12T12:20:32.302Z,94482.94
2023-04-12T12:22:35.566Z,94487.25
2023-04-12T12:24:43.036Z,94486.44
2023-04-12T12:26:46.484Z,94478.44
2023-04-12T12:28:53.476Z,94487.41
2023-04-12T12:30:57.578Z,94493.00
2023-04-12T12:33:00.634Z,94483.63
2023-04-12T12:35:04.397Z,94509.03
2023-04-12T12:37:10.584Z,94498.88
2023-04-12T12:39:15.394Z,94481.25
2023-04-12T12:41:22.776Z,94385.13
2023-04-12T12:43:25.737Z,94481.97
2023-04-12T12:45:30.572Z,94474.50
2023-04-12T12:47:33.443Z,94454.75
2023-04-12T12:49:36.292Z,94471.63
2023-04-12T12:51:39.087Z,94457.59
2023-04-12T12:53:42.218Z,94477.47
2023-04-12T12:55:44.962Z,94465.06
2023-04-12T12:58:05.960Z,94473.41
2023-04-12T13:00:11.143Z,94474.19
2023-04-12T13:02:15.589Z,94470.84
2023-04-12T13:04:18.521Z,94459.88
2023-04-12T13:06:21.309Z,94453.41
2023-04-12T13:08:24.084Z,94458.13
2023-04-12T13:10:27.461Z,94466.75
2023-04-12T13:12:30.233Z,94456.50
2023-04-12T13:14:34.335Z,94445.69
2023-04-12T13:16:37.187Z,94450.91
2023-04-12T13:18:40.016Z,94458.41
2023-04-12T13:20:42.976Z,94432.91
2023-04-12T13:22:45.870Z,94424.78
2023-04-12T13:24:49.243Z,94428.91
2023-04-12T13:26:52.335Z,94433.03
2023-04-12T13:28:55.083Z,94426.91
2023-04-12T13:30:59.234Z,94411.50
2023-04-12T13:33:01.985Z,94415.97
2023-04-12T13:35:05.647Z,94393.38
2023-04-12T13:37:08.643Z,94406.88
2023-04-12T13:39:11.396Z,94399.72
2023-04-12T13:41:14.206Z,94420.84
2023-04-12T13:43:16.947Z,94422.69
2023-04-12T13:45:19.740Z,94408.09
2023-04-12T13:47:24.311Z,94405.31
2023-04-12T13:49:27.042Z,94406.00
2023-04-12T13:51:29.869Z,94404.28
2023-04-12T13:53:32.613Z,94412.81
2023-04-12T13:55:35.422Z,94422.19
2023-04-12T13:57:38.185Z,94407.75
2023-04-12T13:59:41.079Z,94406.00
2023-04-12T14:01:43.936Z,94359.72
2023-04-12T14:03:48.331Z,94404.63
2023-04-12T14:05:51.767Z,94413.38
2023-04-12T14:07:55.653Z,94387.53
2023-04-12T14:09:58.685Z,94409.56
2023-04-12T14:12:02.830Z,94399.22
2023-04-12T14:14:05.789Z,94445.50
2023-04-12T14:16:09.326Z,94395.69
2023-04-12T14:18:12.043Z,94379.50
2023-04-12T14:20:19.209Z,94393.66
2023-04-12T14:22:22.368Z,94374.28
2023-04-12T14:24:25.158Z,94288.63
2023-04-12T14:26:28.000Z,94363.22
2023-04-12T14:28:31.714Z,94373.28
2023-04-12T14:30:34.473Z,94362.06
2023-04-12T14:32:37.250Z,94386.22
2023-04-12T14:34:40.109Z,94372.97
2023-04-12T14:36:44.201Z,94366.03
2023-04-12T14:38:46.937Z,94366.06
2023-04-12T14:40:50.296Z,94305.44
2023-04-12T14:42:53.048Z,94337.31
2023-04-12T14:44:55.805Z,94408.94
2023-04-12T14:46:58.550Z,94405.53
2023-04-12T14:49:01.763Z,94409.81
2023-04-12T14:51:04.885Z,94407.22
2023-04-12T14:53:10.373Z,94416.09
2023-04-12T14:55:13.229Z,94429.88
2023-04-12T14:57:16.171Z,94430.38
2023-04-12T14:59:18.930Z,94365.72
2023-04-12T15:01:21.766Z,94396.19
2023-04-12T15:03:26.551Z,94445.16
2023-04-12T15:05:29.585Z,94472.25
2023-04-12T15:07:32.298Z,94479.38
2023-04-12T15:09:36.368Z,94474.09
2023-04-12T15:11:39.332Z,94485.88
2023-04-12T15:13:44.307Z,94511.88
2023-04-12T15:15:47.627Z,94512.63
2023-04-12T15:17:50.735Z,94523.28
2023-04-12T15:19:53.661Z,94512.44
2023-04-12T15:21:56.425Z,94506.59
2023-04-12T15:23:59.322Z,94512.28
2023-04-12T15:26:06.481Z,94501.59
2023-04-12T15:28:09.213Z,94498.38
2023-04-12T15:30:15.243Z,94504.56
2023-04-12T15:32:18.055Z,94421.56
2023-04-12T15:34:23.189Z,94502.59
2023-04-12T15:36:33.653Z,94487.75
2023-04-12T15:38:42.066Z,94485.16
2023-04-12T15:40:44.831Z,94497.94
2023-04-12T15:42:48.939Z,94490.41
2023-04-12T15:44:51.649Z,94500.22
2023-04-12T15:47:09.634Z,94505.25
2023-04-12T15:49:13.495Z,94476.59
2023-04-12T15:51:16.502Z,94495.72
2023-04-12T15:53:21.367Z,94509.19
2023-04-12T15:55:24.094Z,94408.00
2023-04-12T15:57:27.683Z,94387.63
2023-04-12T15:59:31.751Z,94507.16
2023-04-12T16:01:35.778Z,94519.50
2023-04-12T16:03:38.950Z,94416.78
2023-04-12T16:05:43.229Z,94460.31
2023-04-12T16:07:50.714Z,94523.38
2023-04-12T16:09:53.487Z,94504.81
2023-04-12T16:11:57.272Z,94519.75
2023-04-12T16:14:00.052Z,94489.91
2023-04-12T16:16:04.365Z,94516.81
2023-04-12T16:18:09.191Z,94503.47
2023-04-12T16:20:16.571Z,94503.56
2023-04-12T16:22:19.325Z,94497.16
2023-04-12T16:24:22.070Z,94502.50
2023-04-12T16:26:25.542Z,94502.38
2023-04-12T16:28:28.619Z,94505.97
2023-04-12T16:30:32.411Z,94429.44
2023-04-12T16:32:37.185Z,94441.09
2023-04-12T16:34:41.190Z,94496.00
2023-04-12T16:36:44.634Z,94405.28
2023-04-12T16:38:47.589Z,94469.13
2023-04-12T16:40:50.475Z,94515.91
2023-04-12T16:42:53.205Z,94516.38
2023-04-12T16:44:56.032Z,94432.25
2023-04-12T16:46:59.272Z,94519.19
2023-04-12T16:49:04.256Z,94524.41
2023-04-12T16:51:08.026Z,94440.13
2023-04-12T16:53:10.951Z,94528.81
2023-04-12T16:55:14.225Z,94538.66
2023-04-12T16:57:17.681Z,94528.56
2023-04-12T16:59:20.707Z,94487.50
2023-04-12T17:01:23.382Z,94532.53
2023-04-12T17:03:26.149Z,94522.69
2023-04-12T17:05:30.323Z,94499.31
2023-04-12T17:07:33.120Z,94522.78
2023-04-12T17:09:35.818Z,94542.09
2023-04-12T17:11:38.570Z,94478.91
2023-04-12T17:13:42.143Z,94544.63
2023-04-12T17:15:47.684Z,94535.75
2023-04-12T17:17:52.684Z,94544.63
2023-04-12T17:19:55.879Z,94532.78
2023-04-12T17:22:00.111Z,94506.66
2023-04-12T17:24:02.919Z,94516.56
2023-04-12T17:26:06.904Z,94508.06
2023-04-12T17:28:09.730Z,94510.38
2023-04-12T17:30:13.788Z,94538.44
2023-04-12T17:32:16.836Z,94493.84
2023-04-12T17:34:19.819Z,94516.03
2023-04-12T17:36:22.676Z,94548.13
2023-04-12T17:38:26.756Z,94536.38
2023-04-12T17:40:29.535Z,94533.16
2023-04-12T17:42:32.412Z,94523.44
2023-04-12T17:44:35.231Z,94501.50
2023-04-12T17:46:38.012Z,94518.19
2023-04-12T17:48:41.280Z,94457.06
2023-04-12T17:50:45.270Z,94495.31
2023-04-12T17:52:48.847Z,94552.19
2023-04-12T17:54:53.032Z,94511.88
2023-04-12T17:56:56.528Z,94540.72
2023-04-12T17:58:59.460Z,94524.66
2023-04-12T18:01:02.491Z,94481.41
2023-04-12T18:03:07.402Z,94538.00
2023-04-12T18:05:11.183Z,94519.50
2023-04-12T18:07:14.588Z,94536.94
2023-04-12T18:09:18.036Z,94537.50
2023-04-12T18:11:22.255Z,94434.09
2023-04-12T18:13:25.065Z,94545.53
2023-04-12T18:15:28.250Z,94543.97
2023-04-12T18:17:31.072Z,94503.66
2023-04-12T18:19:33.891Z,94546.69
2023-04-12T18:21:36.790Z,94537.88
2023-04-12T18:23:39.674Z,94550.44
2023-04-12T18:25:42.421Z,94517.88
2023-04-12T18:27:48.688Z,94551.81
2023-04-12T18:29:51.398Z,94563.91
2023-04-12T18:31:54.228Z,94573.03
2023-04-12T18:33:57.547Z,94563.41
2023-04-12T18:36:00.630Z,94596.88
2023-04-12T18:38:03.376Z,94485.13
2023-04-12T18:40:08.289Z,94592.88
2023-04-12T18:42:11.105Z,94592.06
2023-04-12T18:44:17.214Z,94602.50
2023-04-12T18:46:20.554Z,94580.03
2023-04-12T18:48:23.536Z,94569.81
2023-04-12T18:50:26.252Z,94569.84
2023-04-12T18:52:29.091Z,94567.97
2023-04-12T18:54:31.959Z,94515.31
2023-04-12T18:56:34.777Z,94568.22
2023-04-12T18:58:51.110Z,94584.53
2023-04-12T19:00:58.447Z,94573.28
2023-04-12T19:03:01.423Z,94597.16
2023-04-12T19:05:05.380Z,94528.16
2023-04-12T19:07:08.155Z,94423.38
2023-04-12T19:09:11.258Z,94597.16
2023-04-12T19:11:14.057Z,94595.28
2023-04-12T19:13:16.784Z,94589.63
2023-04-12T19:15:19.604Z,94525.78
2023-04-12T19:17:24.773Z,94608.94
2023-04-12T19:19:27.659Z,94605.44
2023-04-12T19:21:31.008Z,94612.94
2023-04-12T19:23:33.805Z,94579.53
2023-04-12T19:25:36.550Z,94612.41
2023-04-12T19:27:39.707Z,94603.59
2023-04-12T19:29:42.461Z,94611.88
2023-04-12T19:31:47.201Z,94625.53
2023-04-12T19:33:51.398Z,94621.50
2023-04-12T19:35:56.055Z,94608.97
2023-04-12T19:37:59.318Z,94627.16
2023-04-12T19:40:02.131Z,94586.53
2023-04-12T19:42:05.324Z,94620.75
2023-04-12T19:44:08.084Z,94636.28
2023-04-12T19:46:11.018Z,94574.19
2023-04-12T19:48:14.305Z,94579.84
2023-04-12T19:50:19.588Z,94637.38
2023-04-12T19:52:23.139Z,94632.03
2023-04-12T19:54:26.314Z,94644.34
2023-04-12T19:56:31.480Z,94634.16
2023-04-12T19:58:34.513Z,94610.59
2023-04-12T20:00:39.256Z,94628.28
2023-04-12T20:02:42.304Z,94613.00
2023-04-12T20:04:45.043Z,94558.44
2023-04-12T20:06:51.870Z,94584.38
2023-04-12T20:08:54.571Z,94636.56
2023-04-12T20:10:57.305Z,94645.44
2023-04-12T20:12:59.980Z,94501.44
2023-04-12T20:15:04.357Z,94658.28
2023-04-12T20:17:08.016Z,94657.72
2023-04-12T20:19:11.060Z,94666.31
2023-04-12T20:21:14.153Z,94661.75
2023-04-12T20:23:18.298Z,94660.16
2023-04-12T20:25:21.164Z,94656.94
2023-04-12T20:27:23.872Z,94617.84
2023-04-12T20:29:26.575Z,94666.28
2023-04-12T20:31:30.534Z,94639.50
2023-04-12T20:33:33.621Z,94686.66
2023-04-12T20:35:36.795Z,94691.47
2023-04-12T20:37:40.085Z,94694.91
2023-04-12T20:39:44.432Z,94469.75
2023-04-12T20:41:50.208Z,94696.22
2023-04-12T20:43:53.071Z,94674.22
2023-04-12T20:45:55.847Z,94686.59
2023-04-12T20:47:59.281Z,94710.66
2023-04-12T20:50:02.550Z,94705.84
2023-04-12T20:52:05.381Z,94600.97
2023-04-12T20:54:09.595Z,94709.41
2023-04-12T20:56:14.178Z,94731.34
2023-04-12T20:58:17.946Z,94577.94
2023-04-12T21:00:23.663Z,94698.31
2023-04-12T21:02:26.732Z,94695.41
2023-04-12T21:04:30.471Z,94674.44
2023-04-12T21:06:34.424Z,94715.09
2023-04-12T21:08:38.022Z,94727.16
2023-04-12T21:10:41.477Z,94725.78
2023-04-12T21:12:47.088Z,94722.22
2023-04-12T21:14:50.863Z,94728.03
2023-04-12T21:16:54.241Z,94725.13
2023-04-12T21:18:58.243Z,94730.38
2023-04-12T21:21:01.746Z,94730.47
2023-04-12T21:23:07.135Z,94726.50
2023-04-12T21:25:13.360Z,94735.09
2023-04-12T21:27:16.071Z,94698.44
2023-04-12T21:29:20.136Z,94749.34
2023-04-12T21:31:22.979Z,94758.69
2023-04-12T21:33:26.210Z,94676.19
2023-04-12T21:35:30.133Z,94734.91
2023-04-12T21:37:34.160Z,94671.78
2023-04-12T21:39:38.876Z,94702.91
2023-04-12T21:41:41.622Z,94729.72
2023-04-12T21:43:47.410Z,94737.47
2023-04-12T21:45:51.612Z,94731.00
2023-04-12T21:47:54.679Z,94734.78
2023-04-12T21:49:57.482Z,94741.47
2023-04-12T21:52:00.465Z,94726.63
2023-04-12T21:54:03.297Z,94757.44
2023-04-12T21:56:06.676Z,94717.31
2023-04-12T21:58:09.415Z,94743.53
2023-04-12T22:00:14.001Z,94748.91
2023-04-12T22:02:18.190Z,94763.31
2023-04-12T22:04:21.380Z,94752.66
2023-04-12T22:06:24.140Z,94736.97
2023-04-12T22:08:26.904Z,94673.22
2023-04-12T22:10:32.603Z,94767.56
2023-04-12T22:12:36.566Z,94777.16
2023-04-12T22:14:40.282Z,94780.88
2023-04-12T22:16:43.072Z,94781.91
2023-04-12T22:18:47.283Z,94788.84
2023-04-12T22:20:50.866Z,94772.25
2023-04-12T22:22:53.636Z,94738.38
2023-04-12T22:24:56.611Z,94736.22
2023-04-12T22:26:59.339Z,94784.00
2023-04-12T22:29:02.068Z,94737.91
2023-04-12T22:31:05.279Z,94593.88
2023-04-12T22:33:08.803Z,94740.00
2023-04-12T22:35:12.974Z,94789.31
2023-04-12T22:37:15.704Z,94720.63
2023-04-12T22:39:18.895Z,94786.09
2023-04-12T22:41:22.998Z,94776.44
2023-04-12T22:43:25.818Z,94775.16
2023-04-12T22:45:28.826Z,94781.25
2023-04-12T22:47:31.620Z,94789.56
2023-04-12T22:49:45.460Z,94789.41
2023-04-12T22:51:49.552Z,94289.41
2023-04-12T22:53:52.359Z,94666.41
2023-04-12T22:55:55.682Z,94731.88
2023-04-12T22:57:58.586Z,94814.84
2023-04-12T23:00:01.715Z,94788.91
2023-04-12T23:02:04.864Z,94790.81
2023-04-12T23:04:07.752Z,94790.31
2023-04-12T23:06:12.660Z,94786.53
2023-04-12T23:08:17.820Z,94754.72
2023-04-12T23:10:22.417Z,94779.00
2023-04-12T23:12:25.648Z,94780.06
2023-04-12T23:14:29.811Z,94720.63
2023-04-12T23:16:33.773Z,94768.31
2023-04-12T23:18:37.754Z,94735.28
2023-04-12T23:20:40.545Z,94744.69
2023-04-12T23:22:57.957Z,94762.63
2023-04-12T23:25:02.488Z,94761.78
2023-04-12T23:27:05.370Z,94766.28
2023-04-12T23:29:08.209Z,94772.38
2023-04-12T23:31:11.034Z,94759.00
2023-04-12T23:33:13.991Z,94772.28
2023-04-12T23:35:17.032Z,94778.69
2023-04-12T23:37:19.799Z,94773.59
2023-04-12T23:39:22.762Z,94594.53
2023-04-12T23:41:27.400Z,94718.56
2023-04-12T23:43:30.952Z,94775.50
2023-04-12T23:45:33.730Z,94555.97
2023-04-12T23:47:36.963Z,94770.59
2023-04-12T23:49:39.734Z,94785.38
2023-04-12T23:51:42.529Z,94787.50
2023-04-12T23:53:45.786Z,94767.88
2023-04-12T23:55:50.094Z,94745.84
2023-04-12T23:57:54.368Z,94793.41
2023-04-12T23:59:57.524Z,94805.38
